Time;durP1;ratioP1;P1;durP2;ratioP2;P2;SDS_P1;SDS_P2;PMS_P1;PMS_P2;Temp;Humidity;BMP_temperature;BMP_pressure;BME280_temperature;BME280_humidity;BME280_pressure;Samples;Min_cycle;Max_cycle;Signal;HPM_P1;HPM_P2
2023/09/14 00:00:55;;;;;;;6.70;6.20;;;22.90;83.40;;;;;;5073057;28;20453;-79
2023/09/14 00:03:24;;;;;;;6.00;5.50;;;22.90;83.20;;;;;;5070717;28;20536;-78
2023/09/14 00:05:52;;;;;;;5.60;5.10;;;22.90;83.20;;;;;;5072959;28;20419;-79
2023/09/14 00:08:22;;;;;;;6.10;5.60;;;23.00;83.20;;;;;;5061547;28;20497;-78
2023/09/14 00:10:54;;;;;;;6.23;5.73;;;23.00;83.00;;;;;;5062328;28;20457;-78
2023/09/14 00:13:23;;;;;;;5.63;5.13;;;23.00;83.00;;;;;;5074352;28;20458;-79
2023/09/14 00:15:53;;;;;;;7.43;5.83;;;23.00;83.10;;;;;;5052273;28;20465;-78
2023/09/14 00:18:21;;;;;;;5.00;4.60;;;23.00;83.00;;;;;;5069623;28;20524;-77
2023/09/14 00:20:52;;;;;;;6.10;5.50;;;23.00;83.00;;;;;;5066846;28;20499;-77
2023/09/14 00:23:21;;;;;;;6.10;5.20;;;22.90;83.00;;;;;;5057057;28;20496;-79
2023/09/14 00:25:50;;;;;;;5.30;4.80;;;23.00;83.00;;;;;;5066404;28;20453;-78
2023/09/14 00:28:18;;;;;;;7.73;5.27;;;22.90;83.00;;;;;;5051272;28;20433;-78
2023/09/14 00:30:47;;;;;;;5.93;5.43;;;23.00;83.10;;;;;;5084822;28;20458;-78
2023/09/14 00:33:16;;;;;;;5.87;5.20;;;23.00;82.90;;;;;;5072299;28;20430;-79
2023/09/14 00:35:47;;;;;;;6.20;5.70;;;23.00;82.90;;;;;;5086140;28;20466;-79
2023/09/14 00:38:15;;;;;;;5.70;5.20;;;22.90;83.10;;;;;;5092003;28;20891;-79
2023/09/14 00:40:44;;;;;;;6.30;5.77;;;22.90;83.10;;;;;;5073657;28;20455;-79
2023/09/14 00:43:12;;;;;;;6.87;6.17;;;22.80;83.20;;;;;;5063729;28;20515;-79
2023/09/14 00:45:41;;;;;;;6.83;6.13;;;22.80;83.30;;;;;;5082062;28;20803;-79
2023/09/14 00:48:09;;;;;;;5.67;5.20;;;22.70;83.50;;;;;;5091717;28;20429;-79
2023/09/14 00:50:39;;;;;;;9.23;5.73;;;22.70;83.70;;;;;;5076486;28;20458;-79
2023/09/14 00:53:11;;;;;;;8.97;5.63;;;22.70;83.50;;;;;;5051447;28;20450;-79
2023/09/14 00:55:39;;;;;;;7.47;5.10;;;22.70;83.70;;;;;;5079592;28;20471;-79
2023/09/14 00:58:07;;;;;;;5.77;5.10;;;22.70;84.00;;;;;;5089657;28;20442;-78
2023/09/14 01:00:36;;;;;;;6.13;5.63;;;22.70;83.70;;;;;;5083356;28;20512;-79
2023/09/14 01:03:05;;;;;;;6.23;5.77;;;22.70;83.80;;;;;;5071894;28;20429;-79
2023/09/14 01:05:35;;;;;;;6.10;5.50;;;22.70;83.80;;;;;;5083465;28;20454;-79
2023/09/14 01:08:05;;;;;;;5.30;4.80;;;22.70;83.80;;;;;;5091561;28;20424;-79
2023/09/14 01:10:33;;;;;;;6.50;6.00;;;22.70;83.70;;;;;;5076321;28;20457;-78
2023/09/14 01:13:02;;;;;;;6.20;5.70;;;22.70;83.60;;;;;;5068592;28;20456;-78
2023/09/14 01:15:33;;;;;;;5.87;5.47;;;22.60;83.80;;;;;;5079658;28;20515;-78
2023/09/14 01:18:13;;;;;;;5.73;5.23;;;22.60;84.10;;;;;;5082659;28;20749;-78
2023/09/14 01:21:24;;;;;;;7.23;6.53;;;22.60;84.00;;;;;;5071044;28;20521;-78
2023/09/14 01:24:02;;;;;;;5.73;5.20;;;22.70;83.80;;;;;;5070987;28;20457;-78
2023/09/14 01:26:33;;;;;;;8.07;6.53;;;22.70;83.70;;;;;;5064251;28;20436;-79
2023/09/14 01:29:04;;;;;;;7.40;6.70;;;22.60;83.30;;;;;;5079848;28;20460;-78
2023/09/14 01:31:32;;;;;;;6.23;5.73;;;22.60;83.70;;;;;;5069341;28;20522;-78
2023/09/14 01:34:02;;;;;;;6.93;5.93;;;22.60;83.70;;;;;;5070286;28;20451;-78
2023/09/14 01:36:41;;;;;;;5.90;5.30;;;22.60;83.50;;;;;;5089500;28;20469;-78
2023/09/14 01:39:11;;;;;;;5.87;5.33;;;22.50;83.30;;;;;;5059435;28;20457;-78
2023/09/14 01:41:42;;;;;;;7.80;6.07;;;22.40;83.70;;;;;;5069262;28;20495;-78
2023/09/14 01:44:13;;;;;;;7.70;6.27;;;22.40;84.00;;;;;;5068506;28;20451;-79
2023/09/14 01:46:42;;;;;;;6.50;5.83;;;22.40;84.10;;;;;;5064720;28;20477;-77
2023/09/14 01:49:10;;;;;;;7.17;6.57;;;22.40;83.70;;;;;;5069878;28;20448;-77
2023/09/14 01:51:38;;;;;;;7.13;5.33;;;22.50;83.30;;;;;;5070340;28;20938;-78
2023/09/14 01:54:07;;;;;;;6.47;5.93;;;22.40;83.30;;;;;;5071313;28;20436;-78
2023/09/14 01:56:35;;;;;;;7.23;6.33;;;22.40;83.30;;;;;;5057339;28;21184;-78
2023/09/14 01:59:05;;;;;;;4.80;4.40;;;22.50;83.30;;;;;;5081519;28;20519;-78
2023/09/14 02:01:34;;;;;;;6.10;5.00;;;22.50;83.40;;;;;;5073832;28;20980;-78
2023/09/14 02:04:02;;;;;;;7.30;6.70;;;22.50;83.30;;;;;;5073565;28;20443;-78
2023/09/14 02:06:31;;;;;;;4.60;4.20;;;22.50;83.00;;;;;;5093453;28;20478;-78
2023/09/14 02:09:01;;;;;;;7.10;6.47;;;22.50;83.20;;;;;;5079531;28;20453;-77
2023/09/14 02:11:30;;;;;;;5.40;5.00;;;22.50;82.90;;;;;;5063055;28;20937;-78
2023/09/14 02:13:58;;;;;;;5.87;5.37;;;22.50;82.80;;;;;;5052898;28;20449;-78
2023/09/14 02:16:28;;;;;;;5.30;4.90;;;22.50;82.90;;;;;;5089701;28;20460;-79
2023/09/14 02:18:56;;;;;;;6.73;6.23;;;22.50;82.80;;;;;;5081276;28;20526;-79
2023/09/14 02:21:24;;;;;;;5.53;5.03;;;22.50;82.60;;;;;;5074117;28;20986;-79
2023/09/14 02:23:53;;;;;;;6.30;5.70;;;22.50;82.70;;;;;;5073572;28;20934;-78
2023/09/14 02:26:21;;;;;;;6.87;6.23;;;22.60;82.60;;;;;;5078431;28;20511;-79
2023/09/14 02:28:49;;;;;;;6.30;5.60;;;22.60;82.50;;;;;;5080315;28;20499;-79
2023/09/14 02:31:19;;;;;;;6.63;4.97;;;22.60;82.20;;;;;;5085533;28;20455;-78
2023/09/14 02:33:49;;;;;;;5.40;5.00;;;22.60;82.20;;;;;;5093227;28;20439;-79
2023/09/14 02:36:17;;;;;;;6.73;6.20;;;22.70;82.10;;;;;;5092239;28;20504;-78
2023/09/14 02:38:45;;;;;;;5.43;5.00;;;22.70;81.80;;;;;;5072577;28;20534;-79
2023/09/14 02:41:14;;;;;;;6.53;5.93;;;22.80;81.50;;;;;;5072710;28;20514;-79
2023/09/14 02:43:43;;;;;;;6.60;6.07;;;23.00;81.30;;;;;;5072539;28;20450;-78
2023/09/14 02:46:11;;;;;;;7.27;6.63;;;22.90;80.70;;;;;;5087794;28;20455;-78
2023/09/14 02:48:39;;;;;;;5.40;5.00;;;22.80;81.10;;;;;;5083951;28;20440;-79
2023/09/14 02:51:09;;;;;;;8.57;6.67;;;22.70;81.70;;;;;;5071906;28;20443;-77
2023/09/14 02:53:37;;;;;;;6.80;6.10;;;22.70;81.80;;;;;;5073670;28;20420;-78
2023/09/14 02:56:09;;;;;;;7.13;6.47;;;22.70;81.60;;;;;;5087908;28;20950;-78
2023/09/14 02:58:38;;;;;;;6.90;6.20;;;22.70;81.80;;;;;;5073821;28;20485;-78
2023/09/14 03:01:08;;;;;;;5.50;5.10;;;22.60;81.80;;;;;;5064287;28;20468;-78
2023/09/14 03:03:39;;;;;;;5.77;5.37;;;22.60;82.30;;;;;;5072355;28;20447;-78
2023/09/14 03:06:09;;;;;;;5.77;5.27;;;22.60;82.30;;;;;;5086982;28;20512;-78
2023/09/14 03:08:37;;;;;;;7.27;6.67;;;22.70;81.90;;;;;;5080262;28;20522;-78
2023/09/14 03:11:06;;;;;;;7.43;6.60;;;22.70;82.00;;;;;;5070302;28;20444;-78
2023/09/14 03:13:34;;;;;;;7.20;6.57;;;22.70;81.60;;;;;;5071252;28;20535;-78
2023/09/14 03:16:02;;;;;;;5.40;4.90;;;22.80;81.60;;;;;;5084637;28;20456;-78
2023/09/14 03:18:31;;;;;;;6.60;6.10;;;22.80;81.60;;;;;;5082113;28;20505;-78
2023/09/14 03:20:59;;;;;;;6.30;5.77;;;22.70;81.60;;;;;;5071744;28;20483;-78
2023/09/14 03:23:29;;;;;;;7.43;6.73;;;22.70;81.50;;;;;;5068281;28;20453;-78
2023/09/14 03:25:57;;;;;;;7.27;6.67;;;22.70;81.80;;;;;;5070813;28;20451;-78
2023/09/14 03:28:25;;;;;;;7.40;6.73;;;22.60;82.00;;;;;;5059568;28;20538;-79
2023/09/14 03:30:54;;;;;;;6.13;5.63;;;22.60;82.00;;;;;;5082065;28;20446;-78
2023/09/14 03:33:23;;;;;;;6.07;5.57;;;22.60;82.10;;;;;;5051904;28;20478;-78
2023/09/14 03:35:51;;;;;;;7.00;6.37;;;22.50;82.10;;;;;;5068368;28;20805;-78
2023/09/14 03:38:19;;;;;;;7.40;6.70;;;22.50;82.30;;;;;;5073062;28;20470;-78
2023/09/14 03:40:49;;;;;;;7.20;6.50;;;22.50;82.20;;;;;;5076916;28;20459;-79
2023/09/14 03:43:17;;;;;;;6.90;6.30;;;22.50;82.00;;;;;;5070702;28;20440;-79
2023/09/14 03:45:46;;;;;;;8.93;6.50;;;22.50;82.20;;;;;;5079579;28;20504;-79
2023/09/14 03:48:15;;;;;;;7.80;7.10;;;22.40;82.00;;;;;;5082900;28;20476;-78
2023/09/14 03:50:43;;;;;;;6.47;5.90;;;22.60;82.40;;;;;;5071132;28;20463;-79
2023/09/14 03:53:12;;;;;;;8.33;7.60;;;22.90;81.90;;;;;;5071208;28;20453;-79
2023/09/14 03:55:40;;;;;;;4.70;4.40;;;23.10;80.90;;;;;;5078685;28;20488;-79
2023/09/14 03:58:10;;;;;;;6.37;5.20;;;23.30;80.70;;;;;;5083933;28;20961;-79
2023/09/14 04:00:38;;;;;;;5.97;5.47;;;23.50;80.40;;;;;;5070932;28;20451;-79
2023/09/14 04:03:08;;;;;;;5.70;5.20;;;23.50;79.40;;;;;;5063738;28;20564;-79
2023/09/14 04:05:36;;;;;;;6.53;5.93;;;23.60;79.90;;;;;;5069866;28;20574;-79
2023/09/14 04:08:06;;;;;;;7.10;6.40;;;23.80;78.70;;;;;;5056346;28;20540;-78
2023/09/14 04:10:37;;;;;;;7.40;6.80;;;23.90;77.90;;;;;;5072224;28;20455;-79
2023/09/14 04:13:27;;;;;;;7.43;6.73;;;24.00;77.60;;;;;;5078033;28;20457;-79
2023/09/14 04:15:57;;;;;;;5.70;5.20;;;23.70;77.70;;;;;;5080581;28;20476;-79
2023/09/14 04:18:25;;;;;;;9.40;8.60;;;23.60;79.40;;;;;;5065668;28;20488;-78
2023/09/14 04:20:54;;;;;;;8.07;7.33;;;23.80;78.10;;;;;;5071608;28;20543;-78
2023/09/14 04:23:23;;;;;;;7.87;6.30;;;23.70;78.30;;;;;;5079040;28;20570;-79
2023/09/14 04:25:52;;;;;;;4.90;4.60;;;23.70;78.30;;;;;;5066818;28;20458;-78
2023/09/14 04:28:21;;;;;;;8.13;7.30;;;23.60;79.30;;;;;;5068754;28;20470;-78
2023/09/14 04:30:53;;;;;;;7.63;6.83;;;23.60;78.70;;;;;;5063796;28;20472;-79
2023/09/14 04:33:23;;;;;;;7.07;6.47;;;23.70;78.70;;;;;;5058286;28;20481;-78
2023/09/14 04:35:56;;;;;;;7.03;6.43;;;23.50;78.60;;;;;;5059439;28;20774;-78
2023/09/14 04:38:24;;;;;;;6.93;6.33;;;23.30;79.60;;;;;;5058375;28;20478;-78
2023/09/14 04:40:53;;;;;;;8.47;7.40;;;23.30;79.00;;;;;;5059639;28;20538;-78
2023/09/14 04:43:22;;;;;;;8.63;7.80;;;23.10;79.70;;;;;;5059148;28;20458;-79
2023/09/14 04:45:52;;;;;;;7.27;6.53;;;23.10;79.80;;;;;;5059909;28;20861;-79
2023/09/14 04:48:20;;;;;;;8.30;7.20;;;23.10;80.10;;;;;;5062027;28;20528;-78
2023/09/14 04:50:50;;;;;;;8.77;7.97;;;23.10;79.90;;;;;;5067335;28;20456;-77
2023/09/14 04:53:18;;;;;;;8.30;7.60;;;23.00;80.10;;;;;;5069561;28;20453;-76
2023/09/14 04:55:47;;;;;;;9.67;8.67;;;23.00;80.40;;;;;;5077373;28;20452;-76
2023/09/14 04:58:16;;;;;;;8.97;8.03;;;23.10;80.00;;;;;;5064470;28;20563;-76
2023/09/14 05:00:48;;;;;;;9.10;8.20;;;23.10;79.80;;;;;;5062395;28;20452;-76
2023/09/14 05:03:18;;;;;;;9.67;8.73;;;23.10;79.80;;;;;;5067147;28;21000;-75
2023/09/14 05:05:52;;;;;;;10.53;9.47;;;23.00;79.50;;;;;;5067427;28;20443;-77
2023/09/14 05:08:21;;;;;;;7.17;6.47;;;23.00;79.50;;;;;;5068164;28;20451;-77
2023/09/14 05:10:52;;;;;;;6.70;5.73;;;23.00;80.80;;;;;;5067749;28;20462;-77
2023/09/14 05:13:21;;;;;;;10.37;8.07;;;23.20;81.20;;;;;;5071638;28;20453;-77
2023/09/14 05:15:50;;;;;;;6.53;6.00;;;23.60;80.60;;;;;;5065650;28;20453;-77
2023/09/14 05:18:25;;;;;;;8.33;7.33;;;23.90;79.60;;;;;;5059711;28;20472;-77
2023/09/14 05:20:53;;;;;;;11.50;10.33;;;24.20;78.50;;;;;;5064368;28;20493;-77
2023/09/14 05:23:22;;;;;;;9.80;8.90;;;24.20;76.00;;;;;;5067558;28;20451;-77
2023/09/14 05:25:50;;;;;;;10.40;9.27;;;23.90;76.90;;;;;;5064698;28;21605;-77
2023/09/14 05:28:19;;;;;;;10.33;9.33;;;23.70;77.10;;;;;;5068439;28;20439;-78
2023/09/14 05:30:47;;;;;;;9.37;8.47;;;23.50;77.90;;;;;;5070240;28;20457;-77
2023/09/14 05:33:15;;;;;;;11.20;9.10;;;23.30;78.20;;;;;;5077585;28;20731;-77
2023/09/14 05:35:45;;;;;;;12.30;11.00;;;23.10;78.70;;;;;;5065450;28;20492;-77
2023/09/14 05:38:15;;;;;;;15.63;14.43;;;22.90;79.10;;;;;;5065543;28;20469;-77
2023/09/14 05:40:43;;;;;;;14.00;11.77;;;22.70;79.80;;;;;;5069304;28;20980;-77
2023/09/14 05:43:11;;;;;;;11.17;10.17;;;22.70;80.10;;;;;;5064782;28;20843;-78
2023/09/14 05:45:41;;;;;;;11.60;10.40;;;22.70;80.10;;;;;;5065895;28;20959;-77
2023/09/14 05:48:09;;;;;;;11.87;10.67;;;22.60;80.00;;;;;;5068756;28;20448;-78
2023/09/14 05:50:38;;;;;;;11.03;10.00;;;22.50;80.20;;;;;;5063628;28;20442;-77
2023/09/14 05:53:09;;;;;;;11.07;9.93;;;22.50;80.40;;;;;;5067136;28;20511;-77
2023/09/14 05:55:38;;;;;;;11.50;10.40;;;22.40;80.50;;;;;;5063593;28;20459;-77
2023/09/14 05:58:06;;;;;;;12.60;9.70;;;22.30;80.80;;;;;;5079161;28;20473;-77
2023/09/14 06:00:35;;;;;;;11.07;10.00;;;22.30;80.80;;;;;;5069195;28;20454;-77
2023/09/14 06:03:03;;;;;;;15.00;11.83;;;22.20;80.80;;;;;;5069881;28;20470;-77
2023/09/14 06:05:31;;;;;;;12.00;10.33;;;22.20;80.60;;;;;;5064499;28;20464;-76
2023/09/14 06:08:00;;;;;;;11.90;10.70;;;22.20;81.00;;;;;;5061324;28;21055;-76
2023/09/14 06:10:30;;;;;;;10.40;9.50;;;22.20;81.30;;;;;;5066720;28;20848;-77
2023/09/14 06:12:59;;;;;;;11.43;10.27;;;22.20;81.00;;;;;;5066426;28;20463;-77
2023/09/14 06:15:27;;;;;;;12.07;10.93;;;22.20;81.00;;;;;;5067849;28;20442;-77
2023/09/14 06:17:55;;;;;;;11.23;9.67;;;22.10;81.30;;;;;;5070402;28;20813;-77
2023/09/14 06:20:23;;;;;;;9.33;8.40;;;22.10;81.20;;;;;;5060665;28;20491;-77
2023/09/14 06:22:52;;;;;;;12.83;8.57;;;22.20;82.00;;;;;;5061235;28;20456;-77
2023/09/14 06:25:21;;;;;;;13.67;10.30;;;22.50;82.40;;;;;;5053612;28;20505;-77
2023/09/14 06:27:50;;;;;;;11.13;7.27;;;22.70;81.40;;;;;;5066172;28;20873;-77
2023/09/14 06:30:19;;;;;;;10.43;9.43;;;22.90;80.50;;;;;;5061987;28;21315;-77
2023/09/14 06:32:47;;;;;;;8.87;6.90;;;23.10;80.20;;;;;;5057775;28;20969;-77
2023/09/14 06:35:16;;;;;;;13.80;9.00;;;23.20;79.50;;;;;;5052642;28;20692;-75
2023/09/14 06:37:44;;;;;;;10.47;9.23;;;23.20;81.20;;;;;;5055213;28;20454;-77
2023/09/14 06:40:14;;;;;;;9.63;6.87;;;23.30;80.80;;;;;;5054540;28;20512;-77
2023/09/14 06:42:43;;;;;;;9.87;8.60;;;23.40;81.10;;;;;;5063463;28;20456;-76
2023/09/14 06:45:12;;;;;;;12.30;8.07;;;23.60;79.10;;;;;;5060160;28;20501;-77
2023/09/14 06:47:41;;;;;;;12.47;8.60;;;23.70;79.70;;;;;;5059490;28;20460;-76
2023/09/14 06:50:10;;;;;;;15.07;6.90;;;23.80;79.70;;;;;;5061543;28;20461;-77
2023/09/14 06:52:38;;;;;;;10.10;7.40;;;23.90;80.00;;;;;;5071765;28;20462;-76
2023/09/14 06:55:07;;;;;;;10.87;7.03;;;24.10;79.00;;;;;;5062550;28;20526;-77
2023/09/14 06:57:36;;;;;;;12.03;7.20;;;24.20;80.10;;;;;;5067390;28;20453;-76
2023/09/14 07:00:09;;;;;;;8.63;7.73;;;24.30;79.60;;;;;;5060334;28;20488;-75
2023/09/14 07:02:40;;;;;;;9.33;7.20;;;24.50;79.70;;;;;;5067876;28;20471;-76
2023/09/14 07:05:10;;;;;;;10.43;8.33;;;24.60;78.00;;;;;;5071276;28;20456;-75
2023/09/14 07:07:38;;;;;;;7.83;7.17;;;24.70;77.00;;;;;;5068506;28;20448;-76
2023/09/14 07:10:07;;;;;;;7.50;5.73;;;24.70;78.80;;;;;;5064775;28;20801;-76
2023/09/14 07:12:36;;;;;;;10.07;6.80;;;24.80;78.90;;;;;;5074156;28;20456;-76
2023/09/14 07:15:09;;;;;;;7.90;6.23;;;25.00;78.30;;;;;;5071414;28;20924;-76
2023/09/14 07:17:37;;;;;;;7.73;6.80;;;25.10;78.00;;;;;;5071808;28;20452;-76
2023/09/14 07:20:09;;;;;;;6.20;5.60;;;25.20;78.00;;;;;;5071097;28;20976;-76
2023/09/14 07:22:38;;;;;;;8.50;7.60;;;25.30;77.50;;;;;;5070317;28;20505;-76
2023/09/14 07:25:08;;;;;;;7.40;6.60;;;25.30;75.90;;;;;;5064725;28;20455;-75
2023/09/14 07:27:37;;;;;;;7.13;6.43;;;25.40;76.60;;;;;;5066349;28;20573;-76
2023/09/14 07:30:06;;;;;;;9.97;8.97;;;25.40;76.80;;;;;;5070729;28;20880;-76
2023/09/14 07:32:34;;;;;;;10.83;6.90;;;25.50;74.50;;;;;;5070170;28;20460;-75
2023/09/14 07:35:03;;;;;;;7.10;6.40;;;25.40;76.50;;;;;;5071326;28;20793;-76
2023/09/14 07:37:33;;;;;;;9.30;6.87;;;25.40;75.60;;;;;;5068702;28;20460;-75
2023/09/14 07:40:03;;;;;;;7.00;6.30;;;25.30;75.10;;;;;;5067790;28;20510;-75
2023/09/14 07:42:31;;;;;;;7.57;6.87;;;25.30;75.90;;;;;;5066683;28;20867;-76
2023/09/14 07:44:59;;;;;;;7.70;7.00;;;25.40;75.20;;;;;;5071225;28;20452;-72
2023/09/14 07:47:29;;;;;;;7.87;6.43;;;25.40;75.70;;;;;;5064345;28;20453;-76
2023/09/14 07:49:59;;;;;;;6.63;6.10;;;25.50;76.00;;;;;;5067712;28;20454;-75
2023/09/14 07:52:28;;;;;;;6.47;5.90;;;25.60;75.70;;;;;;5066603;28;20453;-71
2023/09/14 07:54:58;;;;;;;6.20;5.70;;;25.60;74.90;;;;;;5069967;28;20453;-75
2023/09/14 07:57:26;;;;;;;6.27;5.63;;;25.70;75.30;;;;;;5069680;28;20448;-72
2023/09/14 07:59:54;;;;;;;13.87;10.47;;;25.60;74.90;;;;;;5067632;28;20564;-71
2023/09/14 08:02:25;;;;;;;7.10;6.50;;;25.70;72.90;;;;;;5069530;28;20463;-71
2023/09/14 08:04:54;;;;;;;6.33;5.73;;;25.50;75.10;;;;;;5069892;28;20511;-74
2023/09/14 08:07:23;;;;;;;6.83;6.20;;;25.60;74.50;;;;;;5067911;28;20500;-70
2023/09/14 08:09:51;;;;;;;8.33;7.53;;;25.60;74.50;;;;;;5069174;28;20516;-72
2023/09/14 08:12:20;;;;;;;5.83;5.33;;;25.50;73.10;;;;;;5069370;28;20886;-74
2023/09/14 08:14:49;;;;;;;6.60;6.00;;;25.50;74.50;;;;;;5063423;28;20958;-73
2023/09/14 08:17:17;;;;;;;10.60;8.70;;;25.40;74.10;;;;;;5069127;28;20927;-74
2023/09/14 08:19:45;;;;;;;7.07;5.50;;;25.10;73.90;;;;;;5068657;28;20885;-72
2023/09/14 08:22:14;;;;;;;6.40;5.90;;;24.90;75.20;;;;;;5069990;28;20453;-77
2023/09/14 08:24:43;;;;;;;6.53;6.03;;;24.80;75.60;;;;;;5070322;28;20437;-72
2023/09/14 08:27:12;;;;;;;9.90;9.10;;;25.00;75.10;;;;;;5067239;28;20995;-74
2023/09/14 08:29:43;;;;;;;7.20;6.47;;;25.00;74.10;;;;;;5070978;28;20452;-72
2023/09/14 08:32:12;;;;;;;11.63;10.13;;;25.00;75.60;;;;;;5070621;28;20478;-72
2023/09/14 08:34:40;;;;;;;6.10;5.20;;;25.00;74.30;;;;;;5070233;28;20451;-72
2023/09/14 08:37:09;;;;;;;5.80;5.30;;;25.00;75.40;;;;;;5066089;28;20446;-71
2023/09/14 08:39:38;;;;;;;6.23;5.73;;;25.10;74.90;;;;;;5070467;28;20473;-71
2023/09/14 08:42:06;;;;;;;9.40;7.80;;;25.30;75.50;;;;;;5066439;28;20571;-71
2023/09/14 08:44:35;;;;;;;6.93;6.33;;;25.40;75.10;;;;;;5066292;28;20904;-73
2023/09/14 08:47:07;;;;;;;7.27;6.67;;;25.50;74.50;;;;;;5067308;28;20446;-72
2023/09/14 08:49:37;;;;;;;9.97;9.03;;;25.50;74.30;;;;;;5070511;28;20963;-72
2023/09/14 08:52:07;;;;;;;6.73;6.17;;;25.60;73.20;;;;;;5065377;28;20448;-74
2023/09/14 08:54:36;;;;;;;10.13;9.23;;;25.50;72.90;;;;;;5067711;28;20441;-71
2023/09/14 08:57:05;;;;;;;8.30;7.60;;;25.60;72.70;;;;;;5067998;28;20454;-72
2023/09/14 08:59:35;;;;;;;9.13;7.70;;;25.60;73.70;;;;;;5066116;28;20463;-74
2023/09/14 09:02:08;;;;;;;8.67;7.87;;;25.50;72.30;;;;;;5065483;28;20455;-72
2023/09/14 09:04:36;;;;;;;9.20;8.40;;;25.40;72.80;;;;;;5066736;28;20958;-77
2023/09/14 09:07:06;;;;;;;8.00;7.20;;;25.40;72.60;;;;;;5064598;28;20481;-77
2023/09/14 09:09:35;;;;;;;8.40;7.70;;;25.40;73.50;;;;;;5066455;28;20533;-76
2023/09/14 09:12:04;;;;;;;9.40;8.60;;;25.40;71.80;;;;;;5067556;28;20476;-75
2023/09/14 09:14:32;;;;;;;7.20;6.70;;;25.20;71.80;;;;;;5064053;28;20452;-75
2023/09/14 09:17:00;;;;;;;9.17;6.93;;;25.20;73.60;;;;;;5068258;28;20457;-75
2023/09/14 09:19:30;;;;;;;5.80;5.40;;;25.30;72.40;;;;;;5070237;28;20480;-76
2023/09/14 09:22:01;;;;;;;10.60;8.10;;;25.40;73.50;;;;;;5069544;28;20442;-76
2023/09/14 09:24:34;;;;;;;7.80;7.00;;;25.50;71.60;;;;;;5066556;28;20945;-76
2023/09/14 09:27:25;;;;;;;7.20;6.60;;;25.60;71.40;;;;;;5064819;28;20445;-76
2023/09/14 09:29:58;;;;;;;7.50;5.83;;;25.50;71.10;;;;;;5068606;28;20452;-76
2023/09/14 09:32:26;;;;;;;8.40;7.00;;;25.50;71.60;;;;;;5066142;28;20531;-74
2023/09/14 09:34:56;;;;;;;5.97;5.47;;;25.60;71.00;;;;;;5063780;28;20443;-75
2023/09/14 09:37:25;;;;;;;6.93;5.90;;;25.60;73.50;;;;;;5067992;28;20920;-74
2023/09/14 09:39:54;;;;;;;12.13;4.97;;;25.70;71.70;;;;;;5068189;28;20569;-74
2023/09/14 09:42:23;;;;;;;5.93;5.53;;;25.80;73.10;;;;;;5069949;28;20465;-74
2023/09/14 09:44:58;;;;;;;5.63;5.23;;;26.00;72.40;;;;;;5071627;28;20479;-75
2023/09/14 09:47:26;;;;;;;5.33;4.90;;;26.10;71.90;;;;;;5059144;28;20540;-74
2023/09/14 09:49:56;;;;;;;5.67;5.17;;;26.20;72.00;;;;;;5059468;28;20507;-75
2023/09/14 09:52:24;;;;;;;5.20;4.80;;;26.20;71.70;;;;;;5068213;28;20946;-76
2023/09/14 09:54:52;;;;;;;5.57;5.07;;;26.30;71.80;;;;;;5068362;28;20439;-76
2023/09/14 09:57:20;;;;;;;6.00;5.40;;;26.40;71.40;;;;;;5068203;28;20953;-75
2023/09/14 09:59:49;;;;;;;5.10;4.70;;;26.40;70.70;;;;;;5068890;28;20474;-75
2023/09/14 10:02:31;;;;;;;5.23;4.83;;;26.50;70.90;;;;;;5068870;28;20439;-76
2023/09/14 10:05:01;;;;;;;4.83;4.43;;;26.50;70.80;;;;;;5061851;28;20447;-76
2023/09/14 10:07:29;;;;;;;5.80;5.30;;;26.50;70.60;;;;;;5067495;28;20448;-75
2023/09/14 10:09:58;;;;;;;5.00;4.60;;;26.50;70.20;;;;;;5063086;28;20933;-75
2023/09/14 10:12:28;;;;;;;5.40;4.50;;;26.50;70.30;;;;;;5068837;28;20524;-74
2023/09/14 10:14:59;;;;;;;5.30;4.80;;;26.50;70.50;;;;;;5069457;28;20456;-78
2023/09/14 10:17:30;;;;;;;5.10;4.70;;;26.60;70.00;;;;;;5068593;28;20443;-76
2023/09/14 10:20:01;;;;;;;5.30;4.87;;;26.60;70.00;;;;;;5070341;28;20485;-76
2023/09/14 10:22:29;;;;;;;4.83;4.47;;;26.60;69.30;;;;;;5070195;28;20450;-75
2023/09/14 10:24:58;;;;;;;5.57;5.07;;;26.60;69.60;;;;;;5071477;28;20926;-76
2023/09/14 10:27:28;;;;;;;5.03;4.63;;;26.60;69.60;;;;;;5071861;28;20448;-76
2023/09/14 10:29:57;;;;;;;7.50;6.90;;;26.70;68.90;;;;;;5073313;28;20923;-77
2023/09/14 10:32:27;;;;;;;4.50;4.20;;;26.70;68.60;;;;;;5072032;28;20450;-75
2023/09/14 10:35:00;;;;;;;4.20;3.90;;;26.70;69.20;;;;;;5072459;28;20800;-74
2023/09/14 10:37:36;;;;;;;5.03;4.63;;;26.70;69.60;;;;;;5060562;28;20475;-76
2023/09/14 10:40:06;;;;;;;5.07;4.70;;;26.70;69.50;;;;;;5060410;28;20979;-77
2023/09/14 10:42:34;;;;;;;5.00;4.60;;;26.80;69.60;;;;;;5060121;28;20460;-76
2023/09/14 10:45:03;;;;;;;5.30;4.67;;;26.70;69.90;;;;;;5062338;28;20482;-77
2023/09/14 10:47:36;;;;;;;4.50;4.10;;;26.80;69.90;;;;;;5068527;28;20438;-73
2023/09/14 10:50:06;;;;;;;5.50;5.10;;;26.80;69.70;;;;;;5061420;28;20455;-76
2023/09/14 10:52:38;;;;;;;5.00;4.53;;;26.80;69.40;;;;;;5073577;28;20531;-76
2023/09/14 10:55:09;;;;;;;5.50;5.10;;;26.90;68.60;;;;;;5067416;28;20445;-76
2023/09/14 10:57:40;;;;;;;5.80;5.30;;;26.90;68.70;;;;;;5071715;28;20454;-76
2023/09/14 11:00:29;;;;;;;5.97;5.57;;;26.90;68.90;;;;;;5063923;28;20478;-76
2023/09/14 11:03:18;;;;;;;5.57;4.87;;;26.90;69.00;;;;;;5067614;28;20466;-75
2023/09/14 11:05:52;;;;;;;5.30;4.80;;;26.90;68.70;;;;;;5072189;28;20932;-76
2023/09/14 11:08:28;;;;;;;5.90;5.50;;;26.90;68.90;;;;;;5065402;28;20557;-74
2023/09/14 11:11:01;;;;;;;5.53;5.23;;;26.90;68.60;;;;;;5062777;28;20489;-77
2023/09/14 11:13:33;;;;;;;5.80;5.20;;;26.90;68.40;;;;;;5062067;28;21313;-76
2023/09/14 11:16:25;;;;;;;7.23;5.60;;;26.90;68.00;;;;;;5059910;28;20460;-76
2023/09/14 11:18:56;;;;;;;5.50;5.10;;;26.80;68.30;;;;;;5058159;28;20964;-75
2023/09/14 11:21:45;;;;;;;5.43;5.03;;;26.80;68.50;;;;;;5059005;28;20478;-76
2023/09/14 11:24:18;;;;;;;5.60;5.20;;;26.80;68.60;;;;;;5061148;28;20461;-75
2023/09/14 11:26:50;;;;;;;6.40;5.20;;;26.80;68.60;;;;;;5056984;28;20453;-75
2023/09/14 11:29:26;;;;;;;5.63;5.23;;;26.80;68.50;;;;;;5058325;28;20448;-76
2023/09/14 11:31:58;;;;;;;4.90;4.53;;;26.80;68.40;;;;;;5058521;28;20534;-76
2023/09/14 11:34:37;;;;;;;6.13;5.43;;;26.90;68.50;;;;;;5062722;28;20458;-74
2023/09/14 11:37:13;;;;;;;6.53;6.03;;;26.80;68.30;;;;;;5072459;28;21470;-75
2023/09/14 11:39:56;;;;;;;5.37;4.87;;;26.80;67.60;;;;;;5068868;28;20440;-73
2023/09/14 11:43:06;;;;;;;5.77;5.37;;;26.70;68.30;;;;;;5077190;28;20469;-75
2023/09/14 11:45:39;;;;;;;7.93;7.13;;;26.80;68.10;;;;;;5068555;28;20866;-76
2023/09/14 11:48:10;;;;;;;6.30;5.70;;;26.70;68.30;;;;;;5067104;28;20543;-76
2023/09/14 11:51:07;;;;;;;5.20;4.60;;;26.70;68.20;;;;;;5068104;28;20445;-76
2023/09/14 11:53:36;;;;;;;5.73;5.33;;;26.70;68.40;;;;;;5066131;28;20459;-74
2023/09/14 11:56:06;;;;;;;5.27;4.77;;;26.70;68.30;;;;;;5066204;28;20538;-73
2023/09/14 11:58:35;;;;;;;6.00;5.57;;;26.70;68.30;;;;;;5078037;28;20473;-74
2023/09/14 12:01:06;;;;;;;5.73;5.23;;;26.70;68.00;;;;;;5064654;28;20476;-76
2023/09/14 12:03:38;;;;;;;5.70;5.20;;;26.70;67.60;;;;;;5065070;28;20805;-77
2023/09/14 12:06:08;;;;;;;5.90;5.43;;;26.80;68.00;;;;;;5061207;28;20448;-77
2023/09/14 12:08:36;;;;;;;5.00;4.60;;;26.80;68.10;;;;;;5062997;28;20457;-76
2023/09/14 12:11:06;;;;;;;4.80;4.30;;;26.90;67.90;;;;;;5068693;28;20445;-75
2023/09/14 12:13:34;;;;;;;6.00;5.17;;;26.90;68.10;;;;;;5065730;28;21019;-75
2023/09/14 12:16:04;;;;;;;8.10;5.70;;;26.90;67.70;;;;;;5064617;28;21190;-76
2023/09/14 12:18:40;;;;;;;5.40;5.00;;;26.90;67.70;;;;;;5060747;28;20755;-75
2023/09/14 12:21:10;;;;;;;4.80;4.40;;;26.90;67.90;;;;;;5059905;28;20487;-76
2023/09/14 12:23:40;;;;;;;5.43;5.03;;;26.90;67.80;;;;;;5057117;28;20484;-75
2023/09/14 12:26:12;;;;;;;5.13;4.67;;;26.90;67.80;;;;;;5063584;28;20934;-74
2023/09/14 12:28:41;;;;;;;4.80;4.50;;;26.90;67.40;;;;;;5068210;28;20445;-76
2023/09/14 12:31:10;;;;;;;4.90;4.50;;;27.00;66.10;;;;;;5062048;28;20479;-76
2023/09/14 12:33:39;;;;;;;6.33;5.07;;;27.00;67.10;;;;;;5058800;28;20462;-74
2023/09/14 12:36:10;;;;;;;4.70;4.30;;;27.10;67.30;;;;;;5058354;28;20533;-74
2023/09/14 12:38:38;;;;;;;4.63;4.17;;;27.10;67.30;;;;;;5057952;28;20449;-76
2023/09/14 12:41:15;;;;;;;5.47;4.90;;;27.20;67.20;;;;;;5058902;28;20473;-73
2023/09/14 12:43:44;;;;;;;8.03;4.00;;;27.30;67.00;;;;;;5057928;28;20462;-76
2023/09/14 12:46:13;;;;;;;5.13;4.73;;;27.40;66.60;;;;;;5056441;28;20460;-75
2023/09/14 12:48:43;;;;;;;5.37;4.80;;;27.50;66.30;;;;;;5059964;28;20459;-77
2023/09/14 12:51:16;;;;;;;4.93;4.53;;;27.50;64.20;;;;;;5060193;28;20451;-75
2023/09/14 12:53:45;;;;;;;4.60;4.30;;;27.50;65.90;;;;;;5067933;28;21128;-75
2023/09/14 12:56:15;;;;;;;4.50;4.10;;;27.40;66.00;;;;;;5067034;28;20448;-75
2023/09/14 12:58:43;;;;;;;4.93;4.53;;;27.30;65.70;;;;;;5061673;28;20457;-75
2023/09/14 13:01:12;;;;;;;4.20;3.90;;;27.30;64.60;;;;;;5066109;28;20449;-75